Terminal Aerodrome Forecast
Issued by NWS

Home | Current Version | Previous Version | Text Only | Print | Product List | Glossary On
Versions: 1 2 3 4 5 6 7 8 9 10 11 12 13 14 15 16 17 18 19
000
FTUS46 KLOX 222337
TAFSBA
TAF
KSBA 222337Z 2300/2324 25010KT P6SM SKC
     FM230400 VRB03KT P6SM SKC
     FM231300 VRB03KT 6SM BR OVC006
     FM231700 VRB03KT P6SM BKN010
     FM232000 21006KT P6SM SKC
     FM232200 25008KT P6SM SKC=

USA.gov is the U.S. government's official web portal to all federal, state and local government web resources and services.